Time;durP1;ratioP1;P1;durP2;ratioP2;P2;SDS_P1;SDS_P2;PMS_P1;PMS_P2;Temp;Humidity;BMP_temperature;BMP_pressure;BME280_temperature;BME280_humidity;BME280_pressure;Samples;Min_cycle;Max_cycle;Signal;HPM_P1;HPM_P2
2023/06/11 17:39:30;;;;;;;74.70;70.15;;;;;;;23.21;33.50;100818.84;1867888;76;27298;-60
2023/06/11 17:41:56;;;;;;;7.70;5.95;;;;;;;23.02;34.12;100816.27;1824518;78;25432;-63
2023/06/11 17:44:23;;;;;;;6.25;3.65;;;;;;;22.92;34.28;100824.69;1824544;78;27692;-59
2023/06/11 17:46:50;;;;;;;6.25;3.33;;;;;;;22.75;34.16;100813.70;1824514;78;25451;-56
2023/06/11 17:49:17;;;;;;;3.83;3.02;;;;;;;22.63;34.45;100819.46;1824494;78;25540;-67
2023/06/11 17:51:45;;;;;;;42.15;39.00;;;;;;;22.51;34.73;100819.17;1824496;78;25555;-58
2023/06/11 17:54:12;;;;;;;10.15;4.30;;;;;;;22.38;34.96;100830.44;1824954;78;25642;-73
2023/06/11 17:56:38;;;;;;;13.10;7.00;;;;;;;22.28;34.90;100819.30;1824638;78;27448;-61
2023/06/11 17:59:06;;;;;;;7.65;3.65;;;;;;;22.20;35.18;100820.58;1824522;78;25867;-56
2023/06/11 18:01:39;;;;;;;10.60;6.25;;;;;;;22.14;35.22;100826.20;1824561;78;25395;-56
2023/06/11 18:04:05;;;;;;;6.00;3.85;;;;;;;22.10;35.74;100823.18;1822132;78;25563;-51
2023/06/11 18:06:33;;;;;;;6.12;3.27;;;;;;;22.06;35.47;100827.27;1824637;78;25605;-52
2023/06/11 18:09:02;;;;;;;9.80;3.70;;;;;;;22.05;35.75;100825.70;1824504;78;27492;-56
2023/06/11 18:11:30;;;;;;;11.45;3.27;;;;;;;22.06;35.94;100827.86;1824233;77;25269;-51
2023/06/11 18:13:56;;;;;;;8.00;3.60;;;;;;;22.03;36.24;100832.73;1824476;78;25607;-52
2023/06/11 18:16:23;;;;;;;9.03;3.60;;;;;;;21.95;36.28;100823.61;1824427;78;25571;-52
2023/06/11 18:18:49;;;;;;;3.87;2.90;;;;;;;21.88;36.31;100822.11;1824422;77;25587;-52
2023/06/11 18:21:17;;;;;;;8.20;3.35;;;;;;;21.81;36.16;100829.70;1824474;78;27803;-52
2023/06/11 18:23:44;;;;;;;10.70;4.00;;;;;;;21.78;36.51;100830.46;1824369;78;25476;-53
2023/06/11 18:26:10;;;;;;;6.87;3.50;;;;;;;21.72;36.49;100829.19;1823069;78;25660;-56
2023/06/11 18:28:37;;;;;;;6.75;3.22;;;;;;;21.66;36.76;100834.79;1823984;78;25594;-54
2023/06/11 18:31:03;;;;;;;8.35;3.87;;;;;;;21.58;36.75;100837.45;1824443;77;25613;-55
2023/06/11 18:33:31;;;;;;;8.95;5.10;;;;;;;21.51;37.21;100835.19;1824465;78;27513;-54
2023/06/11 18:35:58;;;;;;;8.85;3.45;;;;;;;21.41;37.33;100839.33;1824331;78;25588;-54
2023/06/11 18:38:24;;;;;;;10.60;4.00;;;;;;;21.35;37.38;100840.80;1824307;78;25501;-53
2023/06/11 18:40:51;;;;;;;13.43;8.63;;;;;;;21.28;37.38;100844.22;1824386;78;25610;-55
2023/06/11 18:43:18;;;;;;;15.43;5.55;;;;;;;21.23;37.63;100849.47;1824462;78;25439;-52
2023/06/11 18:45:44;;;;;;;10.70;4.30;;;;;;;21.15;38.03;100842.85;1824404;77;27820;-56
2023/06/11 18:48:11;;;;;;;9.40;4.78;;;;;;;21.04;38.25;100840.72;1824432;77;25488;-57
2023/06/11 18:50:37;;;;;;;15.00;6.37;;;;;;;20.99;38.38;100849.24;1823944;78;25363;-55
2023/06/11 18:53:03;;;;;;;12.05;6.33;;;;;;;20.92;38.39;100845.59;1823792;78;25536;-54
2023/06/11 18:55:31;;;;;;;26.65;18.10;;;;;;;20.85;38.78;100847.63;1803474;78;25619;-56
2023/06/11 18:57:58;;;;;;;67.00;32.95;;;;;;;20.76;38.50;100850.63;1823773;78;28375;-53
2023/06/11 19:00:26;;;;;;;47.70;23.35;;;;;;;20.70;38.91;100857.01;1823686;78;25399;-55
2023/06/11 19:02:53;;;;;;;21.97;8.75;;;;;;;20.64;39.07;100857.66;1823968;78;25406;-56
2023/06/11 19:05:20;;;;;;;21.77;10.75;;;;;;;20.57;39.38;100856.10;1823788;78;25437;-59
2023/06/11 19:07:47;;;;;;;56.48;21.68;;;;;;;20.53;39.45;100856.85;1822625;78;25635;-59
2023/06/11 19:10:15;;;;;;;22.30;11.35;;;;;;;20.43;39.62;100853.87;1822466;78;27574;-57
2023/06/11 19:12:42;;;;;;;11.68;4.15;;;;;;;20.36;39.76;100861.98;1822198;78;25840;-59
2023/06/11 19:15:11;;;;;;;17.95;8.18;;;;;;;20.28;40.07;100861.84;1822325;78;25653;-59
2023/06/11 19:17:37;;;;;;;15.43;4.50;;;;;;;20.20;40.14;100866.19;1822849;78;34900;-59
2023/06/11 19:20:07;;;;;;;20.32;5.47;;;;;;;20.11;40.31;100869.14;1822371;78;25629;-59
2023/06/11 19:22:35;;;;;;;16.07;6.15;;;;;;;20.04;40.63;100878.58;1823385;78;28045;-57
2023/06/11 19:25:03;;;;;;;9.63;4.05;;;;;;;19.92;41.13;100866.58;1823677;78;25605;-58
2023/06/11 19:27:30;;;;;;;11.83;4.87;;;;;;;19.85;41.31;100868.36;1823791;78;25532;-56
2023/06/11 19:29:57;;;;;;;20.57;4.33;;;;;;;19.74;41.31;100875.78;1824048;78;25407;-54
2023/06/11 19:32:24;;;;;;;8.58;4.00;;;;;;;19.63;41.80;100878.02;1823837;78;25588;-57
2023/06/11 19:34:53;;;;;;;7.00;3.95;;;;;;;19.51;41.44;100872.88;1823750;78;27868;-57
2023/06/11 19:37:19;;;;;;;7.33;4.50;;;;;;;19.44;41.71;100878.75;1823720;78;25676;-58
2023/06/11 19:39:47;;;;;;;6.03;4.80;;;;;;;19.34;41.94;100879.52;1823696;78;25451;-58
2023/06/11 19:42:16;;;;;;;7.85;4.37;;;;;;;19.29;42.55;100886.64;1823732;77;25880;-58
2023/06/11 19:44:44;;;;;;;7.58;4.28;;;;;;;19.19;42.34;100884.43;1823934;78;25484;-57
2023/06/11 19:47:11;;;;;;;17.53;7.30;;;;;;;19.13;42.94;100885.25;1824006;78;27504;-59
2023/06/11 19:49:39;;;;;;;29.42;9.78;;;;;;;19.04;43.08;100881.89;1823673;78;25800;-58
2023/06/11 19:52:07;;;;;;;27.30;21.23;;;;;;;18.95;43.43;100882.62;1803326;78;25636;-59
2023/06/11 19:54:33;;;;;;;13.38;8.10;;;;;;;18.89;43.30;100882.67;1823749;78;25524;-56
2023/06/11 19:57:00;;;;;;;27.90;17.40;;;;;;;18.82;43.26;100884.06;1823807;77;25390;-59
2023/06/11 19:59:30;;;;;;;22.58;13.65;;;;;;;18.79;43.85;100886.67;1823749;78;28430;-60
2023/06/11 20:01:54;;;;;;;73.12;66.57;;;;;;;18.70;43.79;100886.05;1816618;78;25440;-59
2023/06/11 20:04:21;;;;;;;14.03;8.33;;;;;;;18.61;44.19;100885.63;1791350;80;25614;-66
2023/06/11 20:06:49;;;;;;;49.08;45.90;;;;;;;18.55;44.17;100888.95;1756244;81;26163;-67
2023/06/11 20:09:17;;;;;;;13.03;6.30;;;;;;;18.46;44.23;100890.48;1739820;82;25473;-68
2023/06/11 20:11:52;;;;;;;16.23;7.12;;;;;;;18.42;44.50;100892.30;1739786;82;28551;-65
2023/06/11 20:14:17;;;;;;;12.78;11.43;;;;;;;18.35;44.61;100893.47;1739321;82;25499;-62
2023/06/11 20:16:43;;;;;;;77.90;72.95;;;;;;;18.27;44.81;100893.27;1739776;82;25570;-64
2023/06/11 20:19:09;;;;;;;12.13;3.98;;;;;;;18.20;45.04;100878.56;1738904;82;27484;-63
2023/06/11 20:21:35;;;;;;;76.95;71.28;;;;;;;18.16;45.43;100888.63;1739462;82;25635;-64
2023/06/11 20:24:02;;;;;;;79.40;73.67;;;;;;;18.07;45.36;100886.02;1750921;82;28154;-58
2023/06/11 20:26:28;;;;;;;76.72;71.77;;;;;;;18.00;45.75;100881.70;1750807;82;25968;-60
2023/06/11 20:28:54;;;;;;;75.70;70.55;;;;;;;17.90;46.01;100881.02;1751001;82;25469;-57
2023/06/11 20:31:20;;;;;;;13.60;9.58;;;;;;;17.79;46.07;100883.95;1750896;82;25571;-58
2023/06/11 20:33:46;;;;;;;19.05;6.35;;;;;;;17.71;46.45;100882.16;1750927;82;25486;-57
2023/06/11 20:36:13;;;;;;;16.70;6.67;;;;;;;17.68;46.28;100892.42;1751002;82;28210;-59
2023/06/11 20:38:39;;;;;;;16.42;4.75;;;;;;;17.60;46.91;100885.91;1750820;81;25564;-58
2023/06/11 20:41:06;;;;;;;15.55;7.30;;;;;;;17.52;47.33;100890.37;1750905;82;25416;-59
2023/06/11 20:43:32;;;;;;;10.70;5.30;;;;;;;17.49;47.62;100890.25;1750864;82;25453;-60
2023/06/11 20:45:59;;;;;;;12.35;5.17;;;;;;;17.44;48.06;100891.27;1750921;82;25438;-58
2023/06/11 20:48:25;;;;;;;10.15;6.20;;;;;;;17.38;47.97;100897.30;1750924;82;29692;-64
2023/06/11 20:50:52;;;;;;;8.38;5.12;;;;;;;17.32;47.96;100894.00;1750836;82;25390;-63
2023/06/11 20:53:18;;;;;;;10.63;5.22;;;;;;;17.28;48.07;100895.80;1750949;82;25458;-62
2023/06/11 20:55:44;;;;;;;15.50;14.00;;;;;;;17.24;48.63;100898.42;1750980;82;25849;-63
2023/06/11 20:58:11;;;;;;;9.83;5.53;;;;;;;17.16;48.67;100894.66;1750918;82;25659;-63
2023/06/11 21:00:37;;;;;;;7.08;5.40;;;;;;;17.13;48.94;100888.50;1750893;81;27467;-63
2023/06/11 21:03:03;;;;;;;7.75;5.42;;;;;;;17.13;48.80;100899.44;1750809;82;25389;-63
2023/06/11 21:05:30;;;;;;;8.43;6.37;;;;;;;17.10;48.95;100900.11;1750906;82;25399;-63
2023/06/11 21:07:57;;;;;;;9.23;5.85;;;;;;;17.07;48.88;100910.34;1750831;82;25742;-63
2023/06/11 21:10:23;;;;;;;7.80;5.70;;;;;;;17.02;48.88;100905.67;1750884;82;25408;-62
2023/06/11 21:12:49;;;;;;;8.10;5.58;;;;;;;16.94;48.99;100904.06;1750871;82;27556;-62
2023/06/11 21:15:17;;;;;;;8.60;6.15;;;;;;;16.87;49.05;100899.69;1750776;82;25561;-63
2023/06/11 21:17:44;;;;;;;8.38;5.37;;;;;;;16.84;49.55;100900.39;1750904;82;25619;-63
2023/06/11 21:20:11;;;;;;;43.70;40.60;;;;;;;16.75;49.41;100899.62;1750835;82;25810;-64
2023/06/11 21:22:38;;;;;;;11.57;10.48;;;;;;;16.65;49.51;100896.73;1750891;82;25408;-64
2023/06/11 21:25:06;;;;;;;8.25;6.08;;;;;;;16.60;49.58;100902.41;1750851;82;27537;-61
2023/06/11 21:27:34;;;;;;;10.95;6.37;;;;;;;16.52;49.79;100900.00;1750785;82;25494;-65
2023/06/11 21:30:01;;;;;;;11.55;10.23;;;;;;;16.50;50.32;100904.17;1750911;82;25265;-65
2023/06/11 21:32:27;;;;;;;78.78;73.52;;;;;;;16.45;50.08;100914.75;1750852;82;25722;-65
2023/06/11 21:34:54;;;;;;;37.55;33.70;;;;;;;16.34;50.28;100900.69;1750926;82;25466;-64
2023/06/11 21:37:20;;;;;;;14.63;10.98;;;;;;;16.31;50.49;100907.38;1750849;82;27577;-64
2023/06/11 21:39:46;;;;;;;81.82;66.45;;;;;;;16.24;50.62;100907.37;1752483;81;25555;-64
2023/06/11 21:42:13;;;;;;;24.57;16.97;;;;;;;16.17;51.15;100909.02;1753847;81;25629;-64
2023/06/11 21:44:40;;;;;;;80.77;75.47;;;;;;;16.09;51.06;100909.32;1753783;81;25610;-62
2023/06/11 21:47:08;;;;;;;32.50;29.90;;;;;;;15.99;51.08;100902.31;1753908;81;25485;-69
2023/06/11 21:49:34;;;;;;;9.27;6.27;;;;;;;15.94;51.26;100908.53;1754074;81;27533;-62
2023/06/11 21:52:02;;;;;;;10.18;6.33;;;;;;;15.86;51.02;100913.69;1753677;81;25628;-63
2023/06/11 21:54:30;;;;;;;9.08;5.78;;;;;;;15.79;51.14;100907.95;1754055;81;25623;-65
2023/06/11 21:56:56;;;;;;;8.63;6.20;;;;;;;15.73;51.32;100912.53;1753765;81;25725;-64
2023/06/11 21:59:23;;;;;;;12.03;6.85;;;;;;;15.63;51.97;100915.05;1753768;81;25554;-64
2023/06/11 22:01:49;;;;;;;10.50;6.35;;;;;;;15.54;51.77;100912.37;1753765;81;27481;-63
2023/06/11 22:04:16;;;;;;;10.72;6.25;;;;;;;15.45;51.80;100911.05;1753750;81;25602;-63
2023/06/11 22:06:43;;;;;;;11.95;6.22;;;;;;;15.38;51.92;100904.52;1753818;81;25237;-62
2023/06/11 22:09:11;;;;;;;16.95;7.25;;;;;;;15.29;52.27;100898.53;1753817;81;25575;-63
2023/06/11 22:11:38;;;;;;;14.95;8.65;;;;;;;15.23;52.76;100905.84;1754018;81;25467;-64
2023/06/11 22:14:05;;;;;;;14.10;11.97;;;;;;;15.16;53.09;100904.19;1753981;81;27034;-63
2023/06/11 22:16:35;;;;;;;9.95;6.17;;;;;;;15.09;53.41;100897.87;1753692;81;25621;-61
2023/06/11 22:19:03;;;;;;;12.30;5.97;;;;;;;15.05;53.67;100895.54;1753783;81;25449;-61
2023/06/11 22:21:32;;;;;;;11.68;5.72;;;;;;;14.99;54.03;100894.92;1753924;81;25475;-53
2023/06/11 22:23:58;;;;;;;12.58;5.70;;;;;;;14.93;54.20;100891.58;1753807;81;25406;-53
2023/06/11 22:26:27;;;;;;;12.00;6.03;;;;;;;14.86;54.57;100899.42;1753927;81;27579;-66
2023/06/11 22:28:55;;;;;;;11.48;6.40;;;;;;;14.80;54.30;100893.12;1753923;81;25799;-66
2023/06/11 22:31:21;;;;;;;18.70;6.40;;;;;;;14.75;54.38;100888.64;1753925;81;25442;-67
2023/06/11 22:33:47;;;;;;;28.50;7.50;;;;;;;14.73;54.52;100897.13;1753880;81;26078;-67
2023/06/11 22:36:14;;;;;;;27.85;7.50;;;;;;;14.70;54.29;100902.42;1753966;81;25404;-67
2023/06/11 22:38:40;;;;;;;13.75;6.40;;;;;;;14.64;54.55;100904.52;1753694;81;27431;-66
2023/06/11 22:41:08;;;;;;;15.65;6.90;;;;;;;14.60;54.95;100907.63;1753891;81;25669;-67
2023/06/11 22:43:36;;;;;;;14.10;7.05;;;;;;;14.54;55.00;100905.61;1753687;81;25582;-66
2023/06/11 22:46:03;;;;;;;48.83;44.80;;;;;;;14.50;55.34;100901.91;1728722;81;25487;-67
2023/06/11 22:48:29;;;;;;;11.78;6.35;;;;;;;14.44;55.66;100900.48;1753948;81;25586;-65
2023/06/11 22:50:56;;;;;;;8.88;6.03;;;;;;;14.41;55.85;100904.41;1725378;81;29214;-65
2023/06/11 22:53:27;;;;;;;11.25;7.15;;;;;;;14.38;55.84;100901.75;1753821;81;26278;-66
2023/06/11 22:55:55;;;;;;;12.37;6.03;;;;;;;14.34;56.14;100900.80;1753294;81;25379;-66
2023/06/11 22:58:23;;;;;;;7.40;5.87;;;;;;;14.29;55.93;100896.88;1753824;81;26008;-66
2023/06/11 23:00:49;;;;;;;7.85;5.83;;;;;;;14.27;55.91;100895.01;1753876;81;25454;-67
2023/06/11 23:03:15;;;;;;;8.73;6.10;;;;;;;14.23;56.02;100892.70;1753910;81;27556;-66
2023/06/11 23:05:42;;;;;;;10.38;6.12;;;;;;;14.18;56.10;100901.27;1753535;81;25444;-65
2023/06/11 23:08:08;;;;;;;11.68;6.92;;;;;;;14.15;56.38;100899.17;1752765;81;25731;-65
2023/06/11 23:10:34;;;;;;;9.95;6.80;;;;;;;14.14;56.60;100900.28;1752898;81;25800;-65
2023/06/11 23:13:05;;;;;;;11.08;6.50;;;;;;;14.09;56.12;100890.13;1753898;81;25372;-65
2023/06/11 23:15:31;;;;;;;10.80;6.87;;;;;;;14.03;56.63;100892.20;1753942;81;28141;-66
2023/06/11 23:18:02;;;;;;;12.55;6.10;;;;;;;13.97;56.90;100890.17;1753810;81;25736;-66
2023/06/11 23:20:27;;;;;;;12.13;6.30;;;;;;;13.90;56.94;100887.70;1753418;81;25394;-66
2023/06/11 23:22:56;;;;;;;9.15;6.03;;;;;;;13.82;57.06;100887.91;1753841;81;25501;-66
2023/06/11 23:25:27;;;;;;;9.60;7.33;;;;;;;13.73;56.82;100885.16;1754253;81;25637;-63
2023/06/11 23:27:54;;;;;;;10.98;6.12;;;;;;;13.69;57.27;100888.28;1753549;81;28085;-63
2023/06/11 23:30:21;;;;;;;9.15;5.97;;;;;;;13.60;57.34;100882.00;1753505;81;25525;-64
2023/06/11 23:32:48;;;;;;;11.08;6.33;;;;;;;13.52;57.51;100887.67;1753837;81;25492;-63
2023/06/11 23:35:17;;;;;;;9.28;6.15;;;;;;;13.43;57.73;100884.92;1753798;81;25508;-63
2023/06/11 23:37:49;;;;;;;8.53;6.12;;;;;;;13.37;57.88;100885.38;1753975;81;25449;-64
2023/06/11 23:40:13;;;;;;;8.05;6.08;;;;;;;13.30;57.93;100881.71;1752953;81;27502;-64
2023/06/11 23:42:42;;;;;;;8.75;5.72;;;;;;;13.25;57.46;100888.08;1753792;81;25817;-64
2023/06/11 23:45:11;;;;;;;8.23;5.65;;;;;;;13.22;57.85;100889.25;1753861;81;25401;-64
2023/06/11 23:47:39;;;;;;;8.30;5.60;;;;;;;13.17;57.75;100887.47;1753995;81;25988;-65
2023/06/11 23:50:09;;;;;;;13.38;5.80;;;;;;;13.12;57.95;100886.81;1753865;81;25408;-69
2023/06/11 23:52:36;;;;;;;12.73;5.83;;;;;;;13.06;58.16;100888.86;1753883;81;28170;-64
2023/06/11 23:55:04;;;;;;;9.93;6.03;;;;;;;13.02;58.17;100883.23;1753789;81;25461;-64
2023/06/11 23:57:34;;;;;;;81.00;75.90;;;;;;;12.99;58.36;100885.23;1754091;81;25421;-64
